createdAt,value
2022-08-09T00:00:00.303Z,99062.03
2022-08-09T00:02:37.296Z,99050.84
2022-08-09T00:06:15.537Z,99057.41
2022-08-09T00:08:01.440Z,99056.44
2022-08-09T00:10:28.187Z,99056.81
2022-08-09T00:12:54.770Z,99058.88
2022-08-09T00:15:26.583Z,99055.47
2022-08-09T00:18:12.008Z,99054.78
2022-08-09T00:20:41.376Z,99049.66
2022-08-09T00:23:57.724Z,99044.53
2022-08-09T00:25:55.850Z,99044.69
2022-08-09T00:28:23.477Z,99041.25
2022-08-09T00:30:53.904Z,99041.25
2022-08-09T00:33:20.446Z,99041.41
2022-08-09T00:36:02.052Z,99040.59
2022-08-09T00:38:28.663Z,99046.00
2022-08-09T00:40:55.354Z,99039.91
2022-08-09T00:44:11.420Z,99031.31
2022-08-09T00:46:28.529Z,99041.38
2022-08-09T00:48:58.789Z,99038.91
2022-08-09T00:51:27.521Z,99036.56
2022-08-09T00:54:00.610Z,99041.38
2022-08-09T00:56:27.269Z,99043.78
2022-08-09T00:58:54.235Z,99047.41
2022-08-09T01:01:24.474Z,99037.63
2022-08-09T01:04:12.904Z,99036.88
2022-08-09T01:07:02.172Z,99048.50
2022-08-09T01:09:56.431Z,99037.88
2022-08-09T01:12:28.927Z,99038.81
2022-08-09T01:15:05.986Z,99038.63
2022-08-09T01:17:57.606Z,99037.88
2022-08-09T01:20:33.212Z,99043.22
2022-08-09T01:24:02.179Z,99047.81
2022-08-09T01:26:34.051Z,99041.72
2022-08-09T01:29:03.904Z,99042.69
2022-08-09T01:32:31.790Z,99038.44
2022-08-09T01:34:22.268Z,99038.50
2022-08-09T01:36:49.455Z,99042.38
2022-08-09T01:39:17.570Z,99038.00
2022-08-09T01:41:53.364Z,99041.75
2022-08-09T01:44:24.928Z,99045.31
2022-08-09T01:46:53.011Z,99043.88
2022-08-09T01:49:24.090Z,99043.94
2022-08-09T01:51:54.825Z,99040.38
2022-08-09T01:54:25.832Z,99045.91
2022-08-09T01:56:56.792Z,99038.13
2022-08-09T01:59:23.874Z,99045.53
2022-08-09T02:01:59.555Z,99043.78
2022-08-09T02:04:29.787Z,99046.84
2022-08-09T02:07:15.410Z,99049.47
2022-08-09T02:10:12.117Z,99050.50
2022-08-09T02:12:39.997Z,99048.69
2022-08-09T02:15:08.557Z,99051.63
2022-08-09T02:17:59.889Z,99048.25
2022-08-09T02:20:39.741Z,99053.53
2022-08-09T02:23:14.127Z,99051.72
2022-08-09T02:25:52.496Z,99053.53
2022-08-09T02:28:37.298Z,99052.81
2022-08-09T02:31:08.372Z,99054.81
2022-08-09T02:34:06.692Z,99056.59
2022-08-09T02:36:38.058Z,99056.59
2022-08-09T02:39:14.397Z,99052.28
2022-08-09T02:42:01.574Z,99053.28
2022-08-09T02:44:35.194Z,99051.78
2022-08-09T02:47:06.960Z,99050.91
2022-08-09T02:49:41.938Z,99044.75
2022-08-09T02:52:13.483Z,99045.75
2022-08-09T02:54:54.551Z,99045.84
2022-08-09T02:57:25.474Z,99045.91
2022-08-09T03:00:25.655Z,99047.72
2022-08-09T03:02:58.033Z,99051.59
2022-08-09T03:05:26.403Z,99050.94
2022-08-09T03:07:55.445Z,99048.25
2022-08-09T03:10:24.396Z,99048.84
2022-08-09T03:12:52.401Z,99055.53
2022-08-09T03:15:20.820Z,99057.28
2022-08-09T03:17:53.928Z,99055.34
2022-08-09T03:20:29.490Z,99054.69
2022-08-09T03:22:58.278Z,99057.38
2022-08-09T03:25:59.342Z,99060.25
2022-08-09T03:28:17.989Z,99061.13
2022-08-09T03:30:45.842Z,99066.66
2022-08-09T03:33:19.146Z,99065.03
2022-08-09T03:36:13.981Z,99064.31
2022-08-09T03:38:41.809Z,99070.59
2022-08-09T03:41:10.488Z,99072.22
2022-08-09T03:44:02.837Z,99067.06
2022-08-09T03:46:30.440Z,99068.13
2022-08-09T03:49:04.052Z,99067.25
2022-08-09T03:51:56.251Z,99069.22
2022-08-09T03:54:31.281Z,99074.13
2022-08-09T03:57:01.510Z,99070.56
2022-08-09T03:59:53.865Z,99073.34
2022-08-09T04:02:19.940Z,99068.84
2022-08-09T04:04:55.451Z,99073.47
2022-08-09T04:07:21.992Z,99073.47
2022-08-09T04:10:00.539Z,99072.47
2022-08-09T04:12:41.488Z,99074.28
2022-08-09T04:15:29.335Z,99074.31
2022-08-09T04:17:57.772Z,99080.50
2022-08-09T04:20:24.690Z,99076.75
2022-08-09T04:22:52.567Z,99081.22
2022-08-09T04:25:19.298Z,99078.75
2022-08-09T04:27:46.734Z,99077.22
2022-08-09T04:30:23.369Z,99078.91
2022-08-09T04:32:52.973Z,99076.16
2022-08-09T04:35:21.843Z,99088.75
2022-08-09T04:37:49.622Z,99083.53
2022-08-09T04:40:29.055Z,99087.94
2022-08-09T04:43:03.674Z,99084.41
2022-08-09T04:45:31.079Z,99093.50
2022-08-09T04:48:06.669Z,99096.91
2022-08-09T04:50:37.719Z,99094.28
2022-08-09T04:53:12.982Z,99095.09
2022-08-09T04:55:58.117Z,99100.19
2022-08-09T04:58:31.895Z,99100.13
2022-08-09T05:01:01.343Z,99093.69
2022-08-09T05:03:41.286Z,99097.91
2022-08-09T05:06:11.836Z,99109.28
2022-08-09T05:08:48.744Z,99106.31
2022-08-09T05:11:15.611Z,99105.09
2022-08-09T05:13:42.884Z,99112.72
2022-08-09T05:16:10.497Z,99108.94
2022-08-09T05:18:57.623Z,99112.91
2022-08-09T05:21:24.530Z,99114.44
2022-08-09T05:24:00.104Z,99103.38
2022-08-09T05:26:45.624Z,99104.44
2022-08-09T05:29:21.648Z,99092.69
2022-08-09T05:31:56.651Z,99101.53
2022-08-09T05:34:30.830Z,99101.78
2022-08-09T05:37:01.717Z,99099.63
2022-08-09T05:39:36.208Z,99103.63
2022-08-09T05:42:10.235Z,99096.38
2022-08-09T05:44:44.681Z,99093.28
2022-08-09T05:47:14.321Z,99103.41
2022-08-09T05:50:25.888Z,99106.13
2022-08-09T05:52:27.727Z,99105.16
2022-08-09T05:55:07.002Z,99096.41
2022-08-09T05:57:51.240Z,99097.69
2022-08-09T06:00:23.537Z,99095.09
2022-08-09T06:02:54.720Z,99097.50
2022-08-09T06:05:50.145Z,99095.75
2022-08-09T06:08:19.525Z,99103.41
2022-08-09T06:10:56.090Z,99096.56
2022-08-09T06:13:23.865Z,99101.31
2022-08-09T06:15:52.354Z,99110.81
2022-08-09T06:18:23.802Z,99116.16
2022-08-09T06:20:54.767Z,99106.91
2022-08-09T06:23:54.933Z,99120.88
2022-08-09T06:26:21.217Z,99112.81
2022-08-09T06:29:01.168Z,99118.63
2022-08-09T06:31:40.618Z,99113.09
2022-08-09T06:34:20.079Z,99117.97
2022-08-09T06:36:50.934Z,99128.19
2022-08-09T06:39:48.374Z,99130.50
2022-08-09T06:42:13.179Z,99120.19
2022-08-09T06:44:40.134Z,99113.91
2022-08-09T06:47:06.746Z,99120.94
2022-08-09T06:50:11.454Z,99123.31
2022-08-09T06:52:29.084Z,99128.81
2022-08-09T06:54:55.645Z,99137.13
2022-08-09T06:57:25.840Z,99132.59
2022-08-09T07:00:57.273Z,99128.81
2022-08-09T07:02:57.198Z,99125.94
2022-08-09T07:05:24.492Z,99128.72
2022-08-09T07:08:11.032Z,99136.06
2022-08-09T07:10:38.408Z,99128.78
2022-08-09T07:13:27.498Z,99126.91
2022-08-09T07:16:36.055Z,99130.44
2022-08-09T07:18:39.283Z,99133.22
2022-08-09T07:21:07.727Z,99141.22
2022-08-09T07:23:36.208Z,99136.94
2022-08-09T07:26:04.064Z,99135.19
2022-08-09T07:28:34.865Z,99134.34
2022-08-09T07:31:06.901Z,99137.91
2022-08-09T07:33:52.697Z,99138.91
2022-08-09T07:36:20.281Z,99140.88
2022-08-09T07:38:58.255Z,99127.19
2022-08-09T07:41:27.232Z,99140.47
2022-08-09T07:43:59.976Z,99137.00
2022-08-09T07:46:27.977Z,99138.97
2022-08-09T07:48:59.465Z,99140.09
2022-08-09T07:52:05.843Z,99138.38
2022-08-09T07:54:15.278Z,99144.09
2022-08-09T07:56:49.518Z,99141.03
2022-08-09T07:59:34.734Z,99145.38
2022-08-09T08:02:05.372Z,99149.38
2022-08-09T08:04:33.215Z,99142.19
2022-08-09T08:07:27.013Z,99142.88
2022-08-09T08:09:54.842Z,99139.88
2022-08-09T08:12:32.250Z,99136.16
2022-08-09T08:14:59.474Z,99139.78
2022-08-09T08:17:52.260Z,99141.22
2022-08-09T08:20:13.729Z,99140.06
2022-08-09T08:22:41.029Z,99149.94
2022-08-09T08:25:13.253Z,99146.81
2022-08-09T08:27:41.164Z,99147.63
2022-08-09T08:30:12.001Z,99143.19
2022-08-09T08:32:41.487Z,99125.50
2022-08-09T08:35:19.788Z,99140.97
2022-08-09T08:37:59.884Z,99140.47
2022-08-09T08:40:33.277Z,99118.81
2022-08-09T08:43:03.061Z,99124.28
2022-08-09T08:45:51.445Z,99129.38
2022-08-09T08:48:22.269Z,99135.31
2022-08-09T08:50:51.854Z,99127.13
2022-08-09T08:53:21.900Z,99133.16
2022-08-09T08:55:48.820Z,99136.38
2022-08-09T08:58:20.467Z,99121.94
2022-08-09T09:00:56.932Z,99126.56
2022-08-09T09:03:37.098Z,99120.63
2022-08-09T09:06:05.757Z,99133.50
2022-08-09T09:08:37.806Z,99141.28
2022-08-09T09:11:08.393Z,99134.03
2022-08-09T09:13:47.252Z,99126.66
2022-08-09T09:16:30.708Z,99136.63
2022-08-09T09:21:59.310Z,99132.56
2022-08-09T09:24:33.507Z,99124.78
2022-08-09T09:27:03.203Z,99129.63
2022-08-09T09:30:08.621Z,99123.53
2022-08-09T09:32:34.716Z,99126.91
2022-08-09T09:35:03.627Z,99117.06
2022-08-09T09:37:36.241Z,99120.53
2022-08-09T09:40:04.155Z,99122.06
2022-08-09T09:42:31.300Z,99130.81
2022-08-09T09:45:03.118Z,99123.22
2022-08-09T09:47:30.337Z,99123.97
2022-08-09T09:50:14.855Z,99125.03
2022-08-09T09:52:53.834Z,99124.66
2022-08-09T09:55:28.779Z,99116.81
2022-08-09T09:58:16.529Z,99116.81
2022-08-09T10:00:52.551Z,99113.09
2022-08-09T10:03:44.766Z,99114.78
2022-08-09T10:06:24.957Z,99117.50
2022-08-09T10:09:00.390Z,99109.09
2022-08-09T10:11:57.011Z,99123.19
2022-08-09T10:14:30.362Z,99105.56
2022-08-09T10:17:11.537Z,99110.50
2022-08-09T10:19:46.848Z,99107.97
2022-08-09T10:22:31.119Z,99111.13
2022-08-09T10:25:03.446Z,99103.16
2022-08-09T10:27:38.901Z,99106.84
2022-08-09T10:33:29.794Z,99098.84
2022-08-09T10:36:00.870Z,99100.34
2022-08-09T10:38:54.771Z,99089.78
2022-08-09T10:41:17.848Z,99099.91
2022-08-09T10:43:50.563Z,99095.34
2022-08-09T10:47:00.961Z,99087.91
2022-08-09T10:49:56.098Z,99084.78
2022-08-09T10:52:38.072Z,99085.69
2022-08-09T10:55:26.839Z,99071.78
2022-08-09T10:58:00.165Z,99078.69
2022-08-09T11:00:51.068Z,99079.72
2022-08-09T11:03:49.513Z,99079.44
2022-08-09T11:06:18.853Z,99083.41
2022-08-09T11:08:51.275Z,99075.81
2022-08-09T11:11:21.145Z,99072.50
2022-08-09T11:14:38.057Z,99068.19
2022-08-09T11:17:24.533Z,99076.56
2022-08-09T11:20:11.532Z,99061.34
2022-08-09T11:22:55.607Z,99071.16
2022-08-09T11:25:45.225Z,99071.31
2022-08-09T11:28:35.068Z,99063.63
2022-08-09T11:31:50.453Z,99070.72
2022-08-09T11:34:36.033Z,99067.66
2022-08-09T11:37:07.362Z,99058.72
2022-08-09T11:40:02.898Z,99061.06
2022-08-09T11:42:49.309Z,99061.63
2022-08-09T11:45:42.785Z,99064.44
2022-08-09T11:48:19.510Z,99063.28
2022-08-09T11:52:49.109Z,99061.50
2022-08-09T11:54:01.324Z,99067.25
2022-08-09T11:56:42.695Z,99065.78
2022-08-09T11:59:30.553Z,99052.00
2022-08-09T12:02:34.817Z,99053.91
2022-08-09T12:04:51.161Z,99063.84
2022-08-09T12:07:28.867Z,99061.19
2022-08-09T12:10:31.977Z,99059.75
2022-08-09T12:12:55.879Z,99054.50
2022-08-09T12:15:49.695Z,99057.72
2022-08-09T12:18:18.095Z,99055.78
2022-08-09T12:20:59.154Z,99053.34
2022-08-09T12:23:56.635Z,99056.13
2022-08-09T12:26:19.508Z,99042.66
2022-08-09T12:29:14.711Z,99047.53
2022-08-09T12:32:02.259Z,99041.81
2022-08-09T12:34:37.642Z,99050.75
2022-08-09T12:37:22.313Z,99052.97
2022-08-09T12:40:07.774Z,99061.19
2022-08-09T12:42:36.303Z,99055.75
2022-08-09T12:45:32.624Z,99061.47
2022-08-09T12:47:52.579Z,99048.91
2022-08-09T12:50:24.897Z,99044.19
2022-08-09T12:53:09.161Z,99050.00
2022-08-09T12:56:16.080Z,99046.59
2022-08-09T12:58:27.882Z,99038.16
2022-08-09T13:00:56.064Z,99035.59
2022-08-09T13:03:58.534Z,99045.63
2022-08-09T13:06:34.772Z,99044.59
2022-08-09T13:09:08.542Z,99037.22
2022-08-09T13:11:42.478Z,99039.50
2022-08-09T13:14:41.988Z,99039.13
2022-08-09T13:17:13.410Z,99049.25
2022-08-09T13:20:07.631Z,99033.13
2022-08-09T13:22:37.896Z,99027.69
2022-08-09T13:25:19.469Z,99029.06
2022-08-09T13:27:54.498Z,99026.44
2022-08-09T13:30:49.149Z,99037.41
2022-08-09T13:33:11.621Z,99034.59
2022-08-09T13:36:24.421Z,99028.75
2022-08-09T13:38:55.625Z,99040.81
2022-08-09T13:41:58.442Z,99029.66
2022-08-09T13:44:13.770Z,99027.09
2022-08-09T13:47:27.451Z,99025.28
2022-08-09T13:49:39.739Z,99025.03
2022-08-09T13:52:18.775Z,99015.09
2022-08-09T13:54:59.208Z,99019.66
2022-08-09T13:57:55.933Z,99019.53
2022-08-09T14:00:27.360Z,99017.72
2022-08-09T14:03:04.534Z,99017.88
2022-08-09T14:06:00.088Z,99021.94
2022-08-09T14:08:30.393Z,99019.44
2022-08-09T14:10:57.951Z,99007.56
2022-08-09T14:14:15.896Z,98999.94
2022-08-09T14:16:17.188Z,99009.44
2022-08-09T14:18:49.371Z,99010.50
2022-08-09T14:21:20.716Z,99000.41
2022-08-09T14:23:54.672Z,99003.56
2022-08-09T14:26:31.527Z,99004.47
2022-08-09T14:29:08.328Z,99001.31
2022-08-09T14:31:53.885Z,98999.66
2022-08-09T14:34:27.308Z,98991.16
2022-08-09T14:37:09.222Z,99000.63
2022-08-09T14:39:39.928Z,99005.75
2022-08-09T14:42:32.158Z,99001.47
2022-08-09T14:46:40.122Z,98995.75
2022-08-09T14:47:57.979Z,98993.16
2022-08-09T14:50:28.450Z,99000.72
2022-08-09T14:52:55.264Z,98995.03
2022-08-09T14:55:21.958Z,99002.06
2022-08-09T14:57:49.346Z,99008.53
2022-08-09T15:00:17.334Z,98997.91
2022-08-09T15:02:47.272Z,98988.06
2022-08-09T15:05:16.007Z,98994.84
2022-08-09T15:07:45.649Z,98999.72
2022-08-09T15:10:21.742Z,98988.28
2022-08-09T15:12:52.537Z,98991.91
2022-08-09T15:15:20.243Z,98992.84
2022-08-09T15:17:52.491Z,98993.81
2022-08-09T15:21:55.665Z,98997.59
2022-08-09T15:24:00.708Z,98993.06
2022-08-09T15:25:57.360Z,98986.13
2022-08-09T15:28:27.830Z,98971.66
2022-08-09T15:31:08.713Z,98982.13
2022-08-09T15:34:18.133Z,98984.34
2022-08-09T15:36:29.193Z,98978.47
2022-08-09T15:39:00.482Z,98993.38
2022-08-09T15:41:31.469Z,98987.34
2022-08-09T15:44:00.481Z,98990.69
2022-08-09T15:46:34.533Z,98984.66
2022-08-09T15:49:22.159Z,98977.72
2022-08-09T15:52:03.459Z,98977.50
2022-08-09T15:54:48.885Z,98977.84
2022-08-09T15:57:18.740Z,98984.34
2022-08-09T15:59:51.686Z,98983.31
2022-08-09T16:02:19.426Z,98979.41
2022-08-09T16:04:53.848Z,98977.88
2022-08-09T16:07:20.454Z,98978.03
2022-08-09T16:09:57.929Z,98981.66
2022-08-09T16:12:32.914Z,98981.38
2022-08-09T16:15:00.972Z,98984.72
2022-08-09T16:17:28.577Z,98979.28
2022-08-09T16:20:04.659Z,98982.53
2022-08-09T16:22:42.441Z,98977.88
2022-08-09T16:25:15.828Z,98970.38
2022-08-09T16:27:42.532Z,98979.03
2022-08-09T16:30:15.281Z,98981.28
2022-08-09T16:33:09.928Z,98977.09
2022-08-09T16:35:57.269Z,98982.59
2022-08-09T16:38:26.912Z,98991.97
2022-08-09T16:40:53.844Z,98980.22
2022-08-09T16:43:22.080Z,98981.78
2022-08-09T16:45:53.666Z,98983.66
2022-08-09T16:48:38.780Z,98977.38
2022-08-09T16:51:14.241Z,98984.34
2022-08-09T16:54:02.539Z,98979.34
2022-08-09T16:56:30.471Z,98985.22
2022-08-09T16:58:58.055Z,98979.78
2022-08-09T17:01:25.718Z,98974.03
2022-08-09T17:03:53.468Z,98974.94
2022-08-09T17:06:31.875Z,98979.09
2022-08-09T17:09:17.766Z,98979.91
2022-08-09T17:11:48.023Z,98980.44
2022-08-09T17:14:27.660Z,98981.59
2022-08-09T17:17:02.922Z,98984.31
2022-08-09T17:19:47.384Z,98977.75
2022-08-09T17:22:24.229Z,98991.81
2022-08-09T17:24:56.024Z,98989.78
2022-08-09T17:27:31.323Z,98995.34
2022-08-09T17:29:57.923Z,98999.75
2022-08-09T17:32:34.914Z,98996.78
2022-08-09T17:35:11.413Z,99007.69
2022-08-09T17:38:02.609Z,98996.91
2022-08-09T17:40:32.695Z,99001.91
2022-08-09T17:43:10.761Z,98996.19
2022-08-09T17:46:03.766Z,99002.94
2022-08-09T17:48:40.037Z,98999.69
2022-08-09T17:51:19.507Z,99005.13
2022-08-09T17:53:52.245Z,99009.69
2022-08-09T17:56:28.978Z,99007.66
2022-08-09T17:59:03.057Z,99014.09
2022-08-09T18:01:57.667Z,99010.81
2022-08-09T18:04:18.829Z,99005.00
2022-08-09T18:06:54.617Z,99016.25
2022-08-09T18:09:23.457Z,99007.00
2022-08-09T18:12:15.303Z,99010.09
2022-08-09T18:14:49.473Z,99010.78
2022-08-09T18:17:18.840Z,99007.94
2022-08-09T18:20:55.624Z,99016.72
2022-08-09T18:22:50.970Z,99011.00
2022-08-09T18:25:18.270Z,99019.81
2022-08-09T18:28:03.796Z,99021.81
2022-08-09T18:30:40.712Z,99011.84
2022-08-09T18:33:15.874Z,99021.13
2022-08-09T18:36:00.015Z,99024.72
2022-08-09T18:38:27.420Z,99033.06
2022-08-09T18:40:55.262Z,99028.13
2022-08-09T18:43:22.643Z,99028.28
2022-08-09T18:46:50.533Z,99038.53
2022-08-09T18:48:37.240Z,99034.72
2022-08-09T18:51:04.577Z,99039.44
2022-08-09T18:53:56.433Z,99038.94
2022-08-09T18:56:27.003Z,99040.19
2022-08-09T18:58:55.965Z,99039.56
2022-08-09T19:01:23.237Z,99049.47
2022-08-09T19:04:00.939Z,99051.09
2022-08-09T19:06:33.038Z,99048.84
2022-08-09T19:09:02.884Z,99050.34
2022-08-09T19:11:37.640Z,99049.13
2022-08-09T19:14:08.483Z,99047.38
2022-08-09T19:16:36.352Z,99050.75
2022-08-09T19:19:21.551Z,99056.53
2022-08-09T19:22:05.052Z,99050.94
2022-08-09T19:24:49.501Z,99055.34
2022-08-09T19:27:21.849Z,99053.25
2022-08-09T19:30:23.219Z,99058.56
2022-08-09T19:32:36.096Z,99068.50
2022-08-09T19:35:04.265Z,99063.19
2022-08-09T19:37:40.923Z,99060.31
2022-08-09T19:40:19.267Z,99062.09
2022-08-09T19:42:47.343Z,99065.50
2022-08-09T19:45:14.268Z,99065.75
2022-08-09T19:47:42.911Z,99070.53
2022-08-09T19:50:49.534Z,99075.84
2022-08-09T19:52:56.864Z,99070.66
2022-08-09T19:55:30.419Z,99072.59
2022-08-09T19:57:57.595Z,99070.25
2022-08-09T20:00:24.181Z,99075.03
2022-08-09T20:04:17.373Z,99075.25
2022-08-09T20:05:46.391Z,99072.22
2022-08-09T20:08:16.194Z,99076.38
2022-08-09T20:10:52.258Z,99079.69
2022-08-09T20:13:20.722Z,99080.25
2022-08-09T20:16:33.030Z,99076.59
2022-08-09T20:18:35.443Z,99073.81
2022-08-09T20:21:03.098Z,99076.09
2022-08-09T20:23:39.004Z,99079.66
2022-08-09T20:26:09.682Z,99078.91
2022-08-09T20:28:48.231Z,99078.13
2022-08-09T20:31:16.443Z,99084.63
2022-08-09T20:33:44.748Z,99086.47
2022-08-09T20:36:12.289Z,99081.50
2022-08-09T20:39:28.486Z,99085.97
2022-08-09T20:41:32.041Z,99090.59
2022-08-09T20:44:01.378Z,99091.06
2022-08-09T20:46:42.144Z,99085.84
2022-08-09T20:49:11.347Z,99093.19
2022-08-09T20:51:41.540Z,99091.59
2022-08-09T20:54:16.594Z,99093.22
2022-08-09T20:56:49.695Z,99102.41
2022-08-09T20:59:50.240Z,99099.16
2022-08-09T21:02:08.590Z,99092.00
2022-08-09T21:05:52.521Z,99095.91
2022-08-09T21:07:24.897Z,99096.78
2022-08-09T21:10:06.056Z,99094.06
2022-08-09T21:12:37.625Z,99101.53
2022-08-09T21:15:05.047Z,99091.97
2022-08-09T21:18:23.239Z,99089.91
2022-08-09T21:20:25.938Z,99091.84
2022-08-09T21:22:54.483Z,99090.34
2022-08-09T21:25:44.347Z,99095.53
2022-08-09T21:28:34.787Z,99093.22
2022-08-09T21:31:16.296Z,99096.88
2022-08-09T21:33:52.371Z,99088.88
2022-08-09T21:36:28.113Z,99102.84
2022-08-09T21:38:57.850Z,99097.06
2022-08-09T21:42:03.631Z,99092.94
2022-08-09T21:44:34.254Z,99091.03
2022-08-09T21:47:07.596Z,99098.78
2022-08-09T21:49:40.560Z,99095.19
2022-08-09T21:52:16.437Z,99094.97
2022-08-09T21:55:03.085Z,99092.56
2022-08-09T21:57:39.218Z,99096.34
2022-08-09T22:00:32.461Z,99101.72
2022-08-09T22:03:01.962Z,99100.78
2022-08-09T22:05:36.791Z,99097.78
2022-08-09T22:08:07.024Z,99100.22
2022-08-09T22:11:00.350Z,99098.69
2022-08-09T22:13:34.645Z,99099.06
2022-08-09T22:16:03.940Z,99094.81
2022-08-09T22:18:32.983Z,99093.69
2022-08-09T22:21:00.680Z,99103.13
2022-08-09T22:23:35.407Z,99103.34
2022-08-09T22:26:05.802Z,99099.75
2022-08-09T22:28:36.243Z,99101.78
2022-08-09T22:31:13.872Z,99098.22
2022-08-09T22:33:48.646Z,99095.81
2022-08-09T22:36:19.272Z,99105.84
2022-08-09T22:38:46.600Z,99096.94
2022-08-09T22:41:13.197Z,99105.44
2022-08-09T22:44:01.989Z,99105.63
2022-08-09T22:48:12.247Z,99100.81
2022-08-09T22:49:13.255Z,99103.03
2022-08-09T22:51:49.284Z,99108.81
2022-08-09T22:54:21.296Z,99095.03
2022-08-09T22:56:50.774Z,99093.50
2022-08-09T22:59:58.161Z,99103.31
2022-08-09T23:02:08.172Z,99095.81
2022-08-09T23:04:34.799Z,99098.50
2022-08-09T23:08:09.417Z,99098.50
2022-08-09T23:10:11.174Z,99097.53
2022-08-09T23:12:37.845Z,99095.22
2022-08-09T23:15:05.207Z,99101.69
2022-08-09T23:17:31.958Z,99091.28
2022-08-09T23:20:00.857Z,99092.16
2022-08-09T23:22:34.577Z,99091.84
2022-08-09T23:25:04.817Z,99094.84
2022-08-09T23:27:32.265Z,99092.22
2022-08-09T23:29:59.132Z,99090.50
2022-08-09T23:32:25.781Z,99078.34
2022-08-09T23:34:52.320Z,99079.91
2022-08-09T23:37:21.559Z,99088.78
2022-08-09T23:39:52.296Z,99087.91
2022-08-09T23:42:18.980Z,99085.97
2022-08-09T23:44:45.626Z,99083.97
2022-08-09T23:47:12.485Z,99086.00
2022-08-09T23:49:39.112Z,99085.84
2022-08-09T23:52:05.776Z,99087.50
2022-08-09T23:54:32.490Z,99081.28
2022-08-09T23:56:59.201Z,99082.81
2022-08-09T23:59:46.044Z,99078.03
